createdAt,value
2022-11-15T00:01:20.906Z,79.62
2022-11-15T00:03:52.453Z,81.30
2022-11-15T00:06:20.633Z,80.84
2022-11-15T00:08:48.915Z,83.32
2022-11-15T00:11:16.995Z,82.32
2022-11-15T00:13:45.437Z,81.17
2022-11-15T00:16:13.469Z,80.07
2022-11-15T00:18:45.137Z,82.29
2022-11-15T00:21:16.706Z,80.02
2022-11-15T00:23:44.799Z,78.92
2022-11-15T00:26:15.434Z,80.78
2022-11-15T00:28:43.987Z,79.52
2022-11-15T00:31:15.064Z,78.43
2022-11-15T00:33:45.288Z,79.87
2022-11-15T00:36:14.154Z,79.36
2022-11-15T00:38:42.773Z,78.19
2022-11-15T00:41:10.811Z,80.16
2022-11-15T00:43:39.022Z,80.11
2022-11-15T00:46:07.202Z,80.08
2022-11-15T00:48:35.523Z,80.79
2022-11-15T00:51:03.864Z,79.06
2022-11-15T00:53:32.161Z,77.01
2022-11-15T00:56:00.662Z,78.34
2022-11-15T00:58:28.914Z,78.40
2022-11-15T01:00:57.084Z,79.74
2022-11-15T01:03:25.473Z,80.74
2022-11-15T01:05:53.447Z,81.26
2022-11-15T01:08:21.440Z,79.59
2022-11-15T01:10:49.928Z,80.94
2022-11-15T01:13:17.933Z,80.13
2022-11-15T01:15:46.066Z,80.68
2022-11-15T01:18:14.444Z,81.36
2022-11-15T01:20:43.550Z,81.66
2022-11-15T01:23:11.823Z,79.83
2022-11-15T01:25:40.203Z,81.31
2022-11-15T01:28:08.590Z,81.73
2022-11-15T01:30:37.378Z,82.55
2022-11-15T01:33:05.968Z,80.39
2022-11-15T01:35:34.359Z,80.36
2022-11-15T01:38:02.586Z,81.55
2022-11-15T01:40:30.770Z,82.41
2022-11-15T01:42:58.888Z,81.45
2022-11-15T01:45:27.679Z,80.45
2022-11-15T01:47:57.292Z,81.46
2022-11-15T01:50:30.516Z,80.51
2022-11-15T01:52:58.967Z,80.87
2022-11-15T01:55:29.246Z,80.16
2022-11-15T01:58:04.635Z,79.33
2022-11-15T02:00:33.354Z,79.97
2022-11-15T02:03:03.245Z,81.13
2022-11-15T02:05:32.798Z,80.90
2022-11-15T02:08:01.782Z,79.18
2022-11-15T02:10:29.962Z,78.71
2022-11-15T02:13:00.356Z,78.78
2022-11-15T02:15:48.490Z,79.74
2022-11-15T02:18:45.381Z,80.41
2022-11-15T02:21:16.028Z,80.27
2022-11-15T02:24:17.024Z,79.62
2022-11-15T02:27:23.747Z,78.61
2022-11-15T02:30:03.822Z,76.75
2022-11-15T02:32:38.006Z,78.66
2022-11-15T02:35:44.468Z,78.38
2022-11-15T02:38:41.705Z,79.62
2022-11-15T02:41:19.320Z,78.89
2022-11-15T02:43:51.254Z,80.07
2022-11-15T02:46:29.669Z,79.78
2022-11-15T02:48:58.151Z,79.73
2022-11-15T02:51:26.331Z,80.75
2022-11-15T02:53:54.798Z,79.81
2022-11-15T02:56:23.001Z,80.92
2022-11-15T02:59:32.619Z,79.17
2022-11-15T03:02:25.153Z,78.76
2022-11-15T03:05:03.118Z,77.85
2022-11-15T03:07:36.375Z,81.74
2022-11-15T03:10:52.875Z,79.97
2022-11-15T03:14:03.833Z,78.96
2022-11-15T03:16:41.610Z,75.98
2022-11-15T03:19:41.596Z,77.58
2022-11-15T03:22:15.553Z,78.21
2022-11-15T03:24:46.466Z,79.34
2022-11-15T03:27:18.780Z,80.03
2022-11-15T03:29:51.689Z,81.71
2022-11-15T03:32:29.189Z,80.09
2022-11-15T03:35:08.418Z,77.78
2022-11-15T03:38:00.638Z,77.05
2022-11-15T03:41:04.891Z,76.61
2022-11-15T03:43:53.574Z,76.86
2022-11-15T03:46:46.015Z,76.51
2022-11-15T03:49:21.168Z,76.58
2022-11-15T03:51:49.473Z,76.99
2022-11-15T03:54:17.528Z,76.13
2022-11-15T03:56:45.704Z,75.54
2022-11-15T03:59:13.795Z,75.69
2022-11-15T04:01:42.010Z,75.93
2022-11-15T04:04:10.395Z,76.15
2022-11-15T04:06:39.174Z,76.89
2022-11-15T04:09:07.404Z,77.16
2022-11-15T04:11:35.626Z,79.02
2022-11-15T04:14:03.689Z,78.95
2022-11-15T04:16:31.756Z,77.13
2022-11-15T04:18:59.861Z,76.76
2022-11-15T04:21:27.987Z,77.76
2022-11-15T04:23:56.168Z,76.63
2022-11-15T04:26:24.845Z,75.97
2022-11-15T04:28:52.909Z,76.37
2022-11-15T04:31:20.968Z,78.12
2022-11-15T04:33:49.219Z,74.62
2022-11-15T04:36:17.273Z,75.57
2022-11-15T04:38:45.745Z,76.66
2022-11-15T04:41:14.534Z,76.96
2022-11-15T04:43:42.712Z,76.05
2022-11-15T04:46:10.810Z,77.18
2022-11-15T04:48:39.095Z,78.28
2022-11-15T04:51:07.389Z,78.36
2022-11-15T04:53:35.455Z,79.66
2022-11-15T04:56:04.320Z,78.76
2022-11-15T04:58:32.420Z,80.28
2022-11-15T05:01:09.174Z,79.71
2022-11-15T05:03:37.766Z,77.75
2022-11-15T05:06:06.791Z,75.86
2022-11-15T05:08:34.858Z,79.66
2022-11-15T05:11:02.935Z,79.34
2022-11-15T05:13:31.331Z,80.02
2022-11-15T05:15:59.790Z,78.81
2022-11-15T05:18:27.817Z,78.66
2022-11-15T05:20:56.236Z,77.83
2022-11-15T05:23:24.727Z,77.95
2022-11-15T05:25:52.940Z,77.35
2022-11-15T05:28:21.181Z,76.86
2022-11-15T05:30:49.361Z,77.20
2022-11-15T05:33:18.257Z,77.86
2022-11-15T05:35:57.858Z,76.12
2022-11-15T05:38:26.357Z,79.97
2022-11-15T05:40:55.378Z,77.64
2022-11-15T05:43:24.666Z,79.29
2022-11-15T05:45:52.959Z,79.66
2022-11-15T05:48:21.357Z,77.67
2022-11-15T05:50:50.026Z,78.26
2022-11-15T05:53:22.350Z,78.80
2022-11-15T05:55:50.791Z,78.45
2022-11-15T05:58:21.619Z,78.39
2022-11-15T06:00:49.793Z,77.59
2022-11-15T06:03:17.928Z,77.77
2022-11-15T06:05:45.992Z,77.60
2022-11-15T06:08:14.048Z,78.70
2022-11-15T06:10:42.751Z,80.81
2022-11-15T06:13:11.045Z,80.99
2022-11-15T06:15:39.085Z,79.92
2022-11-15T06:18:07.495Z,81.43
2022-11-15T06:20:35.593Z,82.10
2022-11-15T06:23:05.888Z,81.95
2022-11-15T06:25:34.305Z,82.58
2022-11-15T06:28:02.393Z,81.59
2022-11-15T06:30:30.457Z,82.80
2022-11-15T06:33:03.732Z,80.80
2022-11-15T06:35:34.770Z,82.86
2022-11-15T06:38:08.121Z,81.33
2022-11-15T06:40:38.078Z,81.64
2022-11-15T06:43:07.111Z,81.89
2022-11-15T06:45:35.765Z,82.00
2022-11-15T06:48:03.958Z,82.29
2022-11-15T06:50:32.020Z,80.10
2022-11-15T06:53:05.402Z,78.91
2022-11-15T06:55:33.450Z,79.34
2022-11-15T06:58:01.490Z,79.95
2022-11-15T07:00:29.678Z,80.35
2022-11-15T07:03:01.205Z,79.89
2022-11-15T07:05:29.641Z,80.36
2022-11-15T07:07:59.646Z,79.90
2022-11-15T07:10:28.509Z,78.96
2022-11-15T07:12:57.675Z,79.64
2022-11-15T07:15:26.986Z,79.46
2022-11-15T07:17:55.068Z,79.55
2022-11-15T07:20:23.237Z,77.26
2022-11-15T07:22:51.383Z,76.70
2022-11-15T07:25:21.779Z,76.91
2022-11-15T07:27:56.550Z,73.83
2022-11-15T07:30:26.551Z,73.37
2022-11-15T07:33:01.644Z,72.19
2022-11-15T07:35:31.067Z,71.64
2022-11-15T07:38:01.862Z,71.59
2022-11-15T07:40:32.461Z,73.29
2022-11-15T07:43:05.707Z,73.56
2022-11-15T07:45:33.883Z,72.51
2022-11-15T07:48:02.684Z,71.95
2022-11-15T07:50:30.952Z,71.19
2022-11-15T07:53:01.179Z,72.56
2022-11-15T07:55:29.970Z,73.68
2022-11-15T07:58:06.211Z,73.24
2022-11-15T08:00:35.389Z,73.49
2022-11-15T08:03:12.105Z,71.74
2022-11-15T08:05:41.824Z,72.54
2022-11-15T08:08:12.106Z,72.02
2022-11-15T08:10:40.928Z,71.23
2022-11-15T08:13:11.893Z,72.26
2022-11-15T08:15:40.492Z,77.14
2022-11-15T08:18:14.789Z,74.43
2022-11-15T08:20:43.988Z,72.94
2022-11-15T08:23:13.090Z,72.80
2022-11-15T08:25:41.508Z,71.23
2022-11-15T08:28:11.696Z,71.31
2022-11-15T08:30:42.749Z,71.62
2022-11-15T08:33:13.591Z,71.36
2022-11-15T08:35:45.654Z,70.33
2022-11-15T08:38:13.863Z,69.59
2022-11-15T08:40:42.209Z,69.34
2022-11-15T08:43:10.799Z,69.42
2022-11-15T08:45:39.081Z,69.55
2022-11-15T08:48:07.354Z,69.61
2022-11-15T08:50:35.843Z,72.64
2022-11-15T08:53:09.956Z,70.67
2022-11-15T08:55:39.466Z,71.49
2022-11-15T08:58:07.950Z,73.74
2022-11-15T09:00:35.993Z,72.38
2022-11-15T09:03:08.205Z,76.12
2022-11-15T09:05:39.341Z,72.94
2022-11-15T09:08:25.600Z,75.02
2022-11-15T09:10:56.280Z,73.64
2022-11-15T09:13:24.567Z,74.03
2022-11-15T09:15:52.730Z,71.97
2022-11-15T09:18:22.339Z,71.95
2022-11-15T09:20:50.666Z,71.91
2022-11-15T09:23:19.008Z,71.50
2022-11-15T09:25:47.289Z,70.90
2022-11-15T09:28:15.470Z,70.57
2022-11-15T09:30:43.637Z,70.13
2022-11-15T09:33:13.457Z,70.30
2022-11-15T09:35:41.841Z,70.42
2022-11-15T09:38:09.911Z,72.65
2022-11-15T09:40:38.807Z,74.12
2022-11-15T09:43:25.507Z,71.75
2022-11-15T09:46:11.390Z,71.79
2022-11-15T09:49:02.285Z,71.95
2022-11-15T09:51:39.675Z,71.12
2022-11-15T09:57:16.540Z,71.38
2022-11-15T09:59:44.837Z,71.84
2022-11-15T10:02:34.507Z,70.55
2022-11-15T10:05:03.515Z,70.32
2022-11-15T10:07:43.958Z,70.56
2022-11-15T10:10:25.874Z,70.12
2022-11-15T10:12:54.743Z,69.46
2022-11-15T10:15:23.236Z,69.21
2022-11-15T10:17:57.345Z,69.55
2022-11-15T10:20:28.623Z,69.21
2022-11-15T10:23:01.488Z,68.67
2022-11-15T10:25:32.625Z,69.42
2022-11-15T10:28:11.290Z,71.40
2022-11-15T10:30:51.940Z,71.96
2022-11-15T10:33:38.424Z,71.01
2022-11-15T10:36:20.721Z,70.38
2022-11-15T10:38:51.688Z,70.67
2022-11-15T10:41:30.183Z,70.65
2022-11-15T10:44:18.447Z,70.93
2022-11-15T10:47:06.683Z,73.82
2022-11-15T10:49:36.299Z,71.95
2022-11-15T10:52:18.126Z,70.90
2022-11-15T10:54:58.753Z,72.91
2022-11-15T10:57:31.810Z,71.45
2022-11-15T11:00:03.763Z,70.62
2022-11-15T11:02:38.144Z,69.29
2022-11-15T11:05:26.807Z,68.43
2022-11-15T11:08:01.252Z,67.50
2022-11-15T11:10:50.288Z,67.06
2022-11-15T11:13:30.639Z,67.70
2022-11-15T11:16:20.718Z,67.60
2022-11-15T11:18:49.203Z,67.18
2022-11-15T11:21:45.520Z,67.56
2022-11-15T11:24:35.702Z,67.96
2022-11-15T11:27:17.796Z,66.03
2022-11-15T11:29:48.845Z,67.19
2022-11-15T11:32:41.819Z,65.49
2022-11-15T11:35:18.764Z,65.35
2022-11-15T11:38:05.155Z,65.21
2022-11-15T11:40:51.693Z,66.56
2022-11-15T11:43:33.917Z,67.20
2022-11-15T11:46:11.200Z,65.66
2022-11-15T11:48:45.323Z,65.05
2022-11-15T11:51:24.582Z,65.25
2022-11-15T11:54:12.513Z,64.95
2022-11-15T11:56:44.414Z,64.55
2022-11-15T11:59:32.302Z,63.16
2022-11-15T12:02:09.771Z,63.57
2022-11-15T12:04:42.137Z,65.09
2022-11-15T12:07:18.680Z,66.10
2022-11-15T12:10:08.815Z,68.03
2022-11-15T12:12:43.884Z,67.59
2022-11-15T12:15:19.522Z,67.94
2022-11-15T12:17:49.356Z,68.39
2022-11-15T12:20:21.906Z,67.98
2022-11-15T12:23:18.830Z,67.93
2022-11-15T12:25:53.040Z,67.55
2022-11-15T12:28:27.460Z,66.02
2022-11-15T12:31:03.010Z,67.43
2022-11-15T12:33:47.508Z,65.57
2022-11-15T12:36:21.981Z,66.66
2022-11-15T12:38:55.073Z,65.31
2022-11-15T12:41:26.218Z,68.14
2022-11-15T12:43:54.599Z,68.52
2022-11-15T12:46:25.954Z,68.70
2022-11-15T12:48:57.466Z,65.64
2022-11-15T12:51:44.001Z,67.76
2022-11-15T12:54:24.586Z,65.27
2022-11-15T12:57:05.125Z,66.09
2022-11-15T13:00:04.007Z,65.28
2022-11-15T13:02:39.835Z,66.39
2022-11-15T13:05:17.146Z,65.11
2022-11-15T13:07:45.219Z,67.75
2022-11-15T13:10:13.193Z,65.77
2022-11-15T13:12:41.164Z,65.07
2022-11-15T13:15:15.379Z,65.72
2022-11-15T13:17:54.510Z,64.55
2022-11-15T13:20:31.389Z,63.55
2022-11-15T13:22:59.460Z,62.38
2022-11-15T13:25:49.426Z,62.49
2022-11-15T13:28:17.623Z,65.32
2022-11-15T13:30:48.759Z,63.24
2022-11-15T13:33:20.492Z,62.82
2022-11-15T13:35:57.863Z,63.77
2022-11-15T13:38:26.098Z,62.66
2022-11-15T13:40:54.721Z,63.10
2022-11-15T13:43:22.855Z,62.32
2022-11-15T13:46:19.380Z,62.28
2022-11-15T13:48:56.665Z,63.46
2022-11-15T13:51:28.204Z,61.88
2022-11-15T13:54:02.206Z,61.24
2022-11-15T13:56:33.279Z,61.11
2022-11-15T13:59:09.659Z,63.42
2022-11-15T14:01:38.325Z,64.25
2022-11-15T14:04:06.511Z,62.71
2022-11-15T14:06:47.175Z,63.33
2022-11-15T14:09:15.620Z,65.04
2022-11-15T14:11:55.405Z,66.01
2022-11-15T14:14:28.802Z,66.06
2022-11-15T14:16:59.701Z,65.81
2022-11-15T14:19:28.016Z,66.20
2022-11-15T14:22:14.253Z,68.63
2022-11-15T14:24:45.377Z,67.58
2022-11-15T14:27:31.333Z,67.35
2022-11-15T14:29:59.729Z,67.59
2022-11-15T14:32:43.662Z,68.46
2022-11-15T14:35:16.905Z,68.42
2022-11-15T14:37:45.754Z,68.45
2022-11-15T14:40:18.769Z,70.06
2022-11-15T14:42:48.853Z,68.54
2022-11-15T14:45:19.625Z,68.22
2022-11-15T14:47:48.895Z,69.19
2022-11-15T14:50:19.960Z,66.94
2022-11-15T14:52:49.455Z,64.07
2022-11-15T14:55:26.447Z,63.20
2022-11-15T14:57:54.715Z,61.19
2022-11-15T15:00:23.812Z,59.52
2022-11-15T15:02:54.736Z,58.97
2022-11-15T15:05:43.490Z,56.70
2022-11-15T15:08:12.172Z,55.58
2022-11-15T15:10:43.907Z,55.27
2022-11-15T15:13:19.454Z,54.37
2022-11-15T15:15:48.693Z,54.77
2022-11-15T15:18:17.745Z,56.37
2022-11-15T15:20:48.825Z,55.91
2022-11-15T15:23:21.416Z,56.14
2022-11-15T15:25:50.203Z,55.93
2022-11-15T15:28:18.671Z,56.82
2022-11-15T15:30:46.873Z,58.87
2022-11-15T15:33:15.150Z,60.31
2022-11-15T15:35:43.551Z,62.47
2022-11-15T15:38:14.988Z,64.39
2022-11-15T15:40:43.068Z,63.23
2022-11-15T15:43:11.188Z,65.01
2022-11-15T15:45:42.303Z,64.40
2022-11-15T15:48:14.086Z,64.44
2022-11-15T15:50:43.040Z,64.66
2022-11-15T15:53:12.754Z,62.18
2022-11-15T15:55:41.237Z,63.98
2022-11-15T15:58:09.879Z,65.64
2022-11-15T16:00:39.236Z,64.95
2022-11-15T16:03:07.632Z,64.60
2022-11-15T16:05:35.900Z,61.17
2022-11-15T16:08:05.305Z,61.73
2022-11-15T16:10:35.438Z,64.02
2022-11-15T16:13:04.433Z,64.58
2022-11-15T16:15:33.347Z,65.95
2022-11-15T16:18:02.659Z,66.36
2022-11-15T16:20:40.629Z,67.91
2022-11-15T16:23:11.875Z,69.54
2022-11-15T16:25:50.291Z,69.64
2022-11-15T16:28:24.847Z,70.88
2022-11-15T16:31:09.772Z,72.04
2022-11-15T16:33:38.792Z,72.91
2022-11-15T16:36:15.687Z,74.40
2022-11-15T16:38:44.128Z,74.86
2022-11-15T16:41:12.309Z,74.95
2022-11-15T16:43:40.486Z,74.87
2022-11-15T16:46:15.404Z,74.82
2022-11-15T16:48:43.929Z,74.63
2022-11-15T16:51:12.901Z,73.02
2022-11-15T16:53:41.692Z,72.98
2022-11-15T16:56:30.364Z,71.49
2022-11-15T16:59:00.764Z,71.32
2022-11-15T17:01:31.708Z,69.81
2022-11-15T17:04:00.199Z,67.92
2022-11-15T17:06:28.779Z,67.88
2022-11-15T17:08:57.369Z,66.58
2022-11-15T17:11:25.657Z,66.31
2022-11-15T17:13:58.547Z,66.74
2022-11-15T17:16:26.814Z,67.34
2022-11-15T17:18:55.158Z,67.86
2022-11-15T17:21:23.687Z,69.38
2022-11-15T17:23:51.894Z,69.53
2022-11-15T17:26:40.307Z,69.14
2022-11-15T17:29:08.994Z,68.51
2022-11-15T17:31:38.194Z,69.75
2022-11-15T17:34:07.135Z,67.93
2022-11-15T17:36:35.574Z,68.14
2022-11-15T17:39:04.896Z,70.67
2022-11-15T17:41:33.059Z,69.20
2022-11-15T17:44:01.439Z,69.36
2022-11-15T17:46:30.333Z,67.58
2022-11-15T17:48:59.025Z,66.57
2022-11-15T17:51:27.202Z,66.86
2022-11-15T17:53:56.313Z,67.02
2022-11-15T17:56:26.906Z,67.13
2022-11-15T17:58:58.731Z,67.24
2022-11-15T18:01:28.286Z,67.07
2022-11-15T18:03:57.932Z,66.58
2022-11-15T18:06:27.545Z,66.42
2022-11-15T18:08:56.130Z,67.14
2022-11-15T18:11:27.890Z,66.53
2022-11-15T18:14:00.768Z,66.35
2022-11-15T18:16:31.868Z,66.52
2022-11-15T18:19:00.711Z,66.86
2022-11-15T18:21:31.554Z,67.65
2022-11-15T18:24:01.669Z,68.31
2022-11-15T18:26:30.968Z,68.18
2022-11-15T18:29:04.776Z,67.80
2022-11-15T18:31:33.256Z,68.10
2022-11-15T18:34:01.671Z,68.33
2022-11-15T18:36:31.330Z,67.58
2022-11-15T18:39:02.052Z,67.18
2022-11-15T18:41:31.467Z,66.62
2022-11-15T18:44:01.414Z,66.71
2022-11-15T18:46:32.473Z,66.14
2022-11-15T18:49:02.278Z,65.80
2022-11-15T18:51:31.613Z,65.61
2022-11-15T18:54:01.904Z,65.71
2022-11-15T18:56:31.984Z,65.35
2022-11-15T18:59:02.415Z,65.63
2022-11-15T19:01:34.826Z,65.51
2022-11-15T19:04:13.014Z,66.13
2022-11-15T19:06:43.470Z,66.43
2022-11-15T19:09:15.205Z,66.61
2022-11-15T19:11:45.864Z,67.52
2022-11-15T19:14:19.571Z,69.16
2022-11-15T19:16:48.768Z,70.99
2022-11-15T19:19:19.716Z,70.25
2022-11-15T19:21:48.296Z,67.59
2022-11-15T19:24:16.373Z,67.12
2022-11-15T19:26:44.970Z,67.58
2022-11-15T19:29:13.155Z,68.30
2022-11-15T19:31:42.466Z,67.66
2022-11-15T19:34:11.545Z,67.61
2022-11-15T19:36:44.447Z,67.46
2022-11-15T19:39:14.415Z,67.39
2022-11-15T19:41:44.098Z,67.51
2022-11-15T19:44:13.309Z,67.50
2022-11-15T19:46:42.160Z,67.47
2022-11-15T19:49:11.219Z,67.63
2022-11-15T19:51:40.455Z,67.27
2022-11-15T19:54:09.277Z,67.57
2022-11-15T19:56:38.249Z,68.05
2022-11-15T19:59:06.731Z,67.90
2022-11-15T20:01:36.615Z,68.11
2022-11-15T20:04:06.568Z,68.42
2022-11-15T20:06:38.873Z,68.24
2022-11-15T20:09:07.528Z,68.27
2022-11-15T20:11:35.707Z,69.65
2022-11-15T20:14:04.295Z,69.93
2022-11-15T20:16:32.679Z,70.02
2022-11-15T20:19:01.266Z,71.22
2022-11-15T20:21:29.859Z,71.04
2022-11-15T20:23:57.929Z,70.66
2022-11-15T20:26:26.325Z,70.27
2022-11-15T20:28:54.592Z,70.23
2022-11-15T20:31:22.772Z,69.42
2022-11-15T20:33:51.871Z,68.41
2022-11-15T20:36:20.055Z,67.62
2022-11-15T20:38:48.200Z,66.99
2022-11-15T20:41:16.411Z,67.27
2022-11-15T20:43:44.994Z,66.63
2022-11-15T20:46:13.788Z,66.32
2022-11-15T20:48:41.863Z,65.70
2022-11-15T20:51:13.132Z,65.14
2022-11-15T20:53:45.693Z,64.44
2022-11-15T20:56:16.521Z,64.17
2022-11-15T20:58:45.527Z,64.00
2022-11-15T21:01:15.331Z,63.64
2022-11-15T21:03:43.947Z,63.58
2022-11-15T21:06:12.414Z,63.61
2022-11-15T21:08:40.591Z,63.48
2022-11-15T21:11:09.690Z,62.47
2022-11-15T21:13:39.300Z,62.50
2022-11-15T21:16:08.094Z,62.34
2022-11-15T21:18:36.502Z,61.78
2022-11-15T21:21:05.986Z,61.31
2022-11-15T21:23:34.062Z,60.97
2022-11-15T21:26:02.250Z,61.29
2022-11-15T21:28:31.268Z,62.73
2022-11-15T21:31:00.955Z,61.90
2022-11-15T21:33:29.437Z,61.78
2022-11-15T21:35:58.149Z,63.06
2022-11-15T21:38:28.455Z,63.27
2022-11-15T21:40:56.838Z,63.77
2022-11-15T21:43:25.116Z,64.13
2022-11-15T21:46:01.076Z,64.04
2022-11-15T21:48:31.508Z,65.15
2022-11-15T21:51:02.439Z,66.17
2022-11-15T21:53:31.237Z,65.39
2022-11-15T21:56:00.439Z,65.95
2022-11-15T21:58:29.167Z,65.30
2022-11-15T22:00:58.138Z,65.03
2022-11-15T22:03:26.209Z,64.27
2022-11-15T22:05:54.891Z,66.13
2022-11-15T22:08:23.069Z,67.17
2022-11-15T22:10:51.901Z,72.59
2022-11-15T22:13:20.350Z,72.62
2022-11-15T22:15:48.528Z,69.42
2022-11-15T22:18:16.703Z,72.81
2022-11-15T22:21:02.488Z,69.68
2022-11-15T22:23:33.158Z,66.28
2022-11-15T22:26:02.322Z,64.86
2022-11-15T22:28:30.931Z,63.89
2022-11-15T22:30:59.802Z,63.66
2022-11-15T22:33:30.514Z,63.96
2022-11-15T22:35:59.228Z,64.93
2022-11-15T22:38:28.228Z,70.87
2022-11-15T22:40:57.119Z,64.57
2022-11-15T22:43:26.415Z,63.45
2022-11-15T22:45:55.728Z,63.89
2022-11-15T22:48:33.052Z,65.02
2022-11-15T22:51:01.814Z,65.81
2022-11-15T22:53:30.804Z,67.28
2022-11-15T22:56:01.233Z,64.92
2022-11-15T22:58:31.763Z,64.89
2022-11-15T23:01:03.142Z,65.60
2022-11-15T23:03:32.705Z,66.03
2022-11-15T23:06:07.937Z,66.23
2022-11-15T23:08:36.333Z,66.55
2022-11-15T23:11:05.461Z,67.26
2022-11-15T23:13:34.317Z,67.94
2022-11-15T23:16:07.932Z,68.20
2022-11-15T23:18:40.832Z,68.62
2022-11-15T23:21:14.660Z,68.37
2022-11-15T23:23:42.817Z,68.24
2022-11-15T23:26:11.096Z,68.20
2022-11-15T23:28:39.480Z,68.33
2022-11-15T23:31:08.372Z,68.90
2022-11-15T23:33:36.756Z,72.03
2022-11-15T23:36:05.555Z,70.02
2022-11-15T23:38:37.417Z,71.20
2022-11-15T23:41:06.727Z,69.55
2022-11-15T23:43:35.013Z,69.96
2022-11-15T23:46:03.757Z,69.25
2022-11-15T23:48:32.468Z,68.78
2022-11-15T23:51:00.862Z,67.59
2022-11-15T23:53:29.457Z,67.21
2022-11-15T23:56:01.757Z,66.71
2022-11-15T23:58:30.655Z,68.31
